sensor_id;sensor_type;location;lat;lon;timestamp;temperature;humidity
67050;DHT22;53955;52.442;13.284;2022-09-02T00:01:34;18.90;44.10
67050;DHT22;53955;52.442;13.284;2022-09-02T00:04:04;19.00;43.90
67050;DHT22;53955;52.442;13.284;2022-09-02T00:06:31;18.90;43.80
67050;DHT22;53955;52.442;13.284;2022-09-02T00:09:01;18.90;43.80
67050;DHT22;53955;52.442;13.284;2022-09-02T00:11:30;18.90;43.70
67050;DHT22;53955;52.442;13.284;2022-09-02T00:13:59;18.90;43.20
67050;DHT22;53955;52.442;13.284;2022-09-02T00:16:27;18.70;44.40
67050;DHT22;53955;52.442;13.284;2022-09-02T00:18:54;18.70;44.20
67050;DHT22;53955;52.442;13.284;2022-09-02T00:21:22;18.70;44.30
67050;DHT22;53955;52.442;13.284;2022-09-02T00:23:50;18.80;44.10
67050;DHT22;53955;52.442;13.284;2022-09-02T00:26:18;18.80;44.20
67050;DHT22;53955;52.442;13.284;2022-09-02T00:28:46;18.80;44.10
67050;DHT22;53955;52.442;13.284;2022-09-02T00:31:13;18.90;44.40
67050;DHT22;53955;52.442;13.284;2022-09-02T00:33:40;18.90;44.10
67050;DHT22;53955;52.442;13.284;2022-09-02T00:36:07;18.90;44.10
67050;DHT22;53955;52.442;13.284;2022-09-02T00:38:34;18.80;43.50
67050;DHT22;53955;52.442;13.284;2022-09-02T00:41:04;18.90;43.60
67050;DHT22;53955;52.442;13.284;2022-09-02T00:43:42;19.00;43.30
67050;DHT22;53955;52.442;13.284;2022-09-02T00:46:10;19.00;43.80
67050;DHT22;53955;52.442;13.284;2022-09-02T00:48:39;18.70;44.20
67050;DHT22;53955;52.442;13.284;2022-09-02T00:51:07;18.70;44.20
67050;DHT22;53955;52.442;13.284;2022-09-02T00:53:34;18.80;44.20
67050;DHT22;53955;52.442;13.284;2022-09-02T00:56:05;18.80;44.10
67050;DHT22;53955;52.442;13.284;2022-09-02T00:58:36;18.80;43.90
67050;DHT22;53955;52.442;13.284;2022-09-02T01:01:05;18.90;44.00
67050;DHT22;53955;52.442;13.284;2022-09-02T01:03:32;18.90;44.20
67050;DHT22;53955;52.442;13.284;2022-09-02T01:05:59;18.90;44.50
67050;DHT22;53955;52.442;13.284;2022-09-02T01:08:29;19.00;43.40
67050;DHT22;53955;52.442;13.284;2022-09-02T01:10:57;18.70;44.90
67050;DHT22;53955;52.442;13.284;2022-09-02T01:13:25;18.80;44.90
67050;DHT22;53955;52.442;13.284;2022-09-02T01:15:55;18.90;44.10
67050;DHT22;53955;52.442;13.284;2022-09-02T01:18:26;18.90;44.20
67050;DHT22;53955;52.442;13.284;2022-09-02T01:20:54;18.80;44.50
67050;DHT22;53955;52.442;13.284;2022-09-02T01:23:22;18.80;44.90
67050;DHT22;53955;52.442;13.284;2022-09-02T01:25:49;18.70;44.40
67050;DHT22;53955;52.442;13.284;2022-09-02T01:28:17;18.60;44.30
67050;DHT22;53955;52.442;13.284;2022-09-02T01:30:47;18.70;45.00
67050;DHT22;53955;52.442;13.284;2022-09-02T01:33:15;18.70;44.90
67050;DHT22;53955;52.442;13.284;2022-09-02T01:35:42;18.70;45.30
67050;DHT22;53955;52.442;13.284;2022-09-02T01:38:09;18.70;45.30
67050;DHT22;53955;52.442;13.284;2022-09-02T01:40:37;18.80;44.70
67050;DHT22;53955;52.442;13.284;2022-09-02T01:43:07;18.80;44.80
67050;DHT22;53955;52.442;13.284;2022-09-02T01:45:35;18.80;44.30
67050;DHT22;53955;52.442;13.284;2022-09-02T01:48:03;18.70;44.30
67050;DHT22;53955;52.442;13.284;2022-09-02T01:50:31;18.70;45.00
67050;DHT22;53955;52.442;13.284;2022-09-02T01:52:59;18.70;44.80
67050;DHT22;53955;52.442;13.284;2022-09-02T01:55:28;18.50;45.30
67050;DHT22;53955;52.442;13.284;2022-09-02T01:57:56;18.60;45.60
67050;DHT22;53955;52.442;13.284;2022-09-02T02:00:23;18.40;44.80
67050;DHT22;53955;52.442;13.284;2022-09-02T02:02:51;18.50;45.00
67050;DHT22;53955;52.442;13.284;2022-09-02T02:05:18;18.10;47.10
67050;DHT22;53955;52.442;13.284;2022-09-02T02:07:45;18.10;47.60
67050;DHT22;53955;52.442;13.284;2022-09-02T02:10:13;18.20;47.10
67050;DHT22;53955;52.442;13.284;2022-09-02T02:12:40;18.20;45.60
67050;DHT22;53955;52.442;13.284;2022-09-02T02:15:10;18.20;45.90
67050;DHT22;53955;52.442;13.284;2022-09-02T02:17:37;18.20;45.50
67050;DHT22;53955;52.442;13.284;2022-09-02T02:20:06;18.20;46.10
67050;DHT22;53955;52.442;13.284;2022-09-02T02:22:33;18.00;47.90
67050;DHT22;53955;52.442;13.284;2022-09-02T02:25:00;18.00;48.00
67050;DHT22;53955;52.442;13.284;2022-09-02T02:27:26;18.10;47.90
67050;DHT22;53955;52.442;13.284;2022-09-02T02:29:53;18.00;48.40
67050;DHT22;53955;52.442;13.284;2022-09-02T02:32:21;17.70;48.60
67050;DHT22;53955;52.442;13.284;2022-09-02T02:34:48;17.70;49.30
67050;DHT22;53955;52.442;13.284;2022-09-02T02:37:14;17.60;48.90
67050;DHT22;53955;52.442;13.284;2022-09-02T02:39:42;17.70;49.00
67050;DHT22;53955;52.442;13.284;2022-09-02T02:42:09;17.60;49.10
67050;DHT22;53955;52.442;13.284;2022-09-02T02:44:37;17.40;49.70
67050;DHT22;53955;52.442;13.284;2022-09-02T02:47:05;17.50;50.00
67050;DHT22;53955;52.442;13.284;2022-09-02T02:49:37;17.40;50.30
67050;DHT22;53955;52.442;13.284;2022-09-02T02:52:04;17.60;50.10
67050;DHT22;53955;52.442;13.284;2022-09-02T02:54:30;17.60;50.10
67050;DHT22;53955;52.442;13.284;2022-09-02T02:56:57;17.60;50.10
67050;DHT22;53955;52.442;13.284;2022-09-02T02:59:24;17.80;50.10
67050;DHT22;53955;52.442;13.284;2022-09-02T03:01:51;17.80;50.20
67050;DHT22;53955;52.442;13.284;2022-09-02T03:04:18;17.80;49.60
67050;DHT22;53955;52.442;13.284;2022-09-02T03:06:46;17.80;50.20
67050;DHT22;53955;52.442;13.284;2022-09-02T03:09:12;17.80;50.30
67050;DHT22;53955;52.442;13.284;2022-09-02T03:11:39;17.80;50.10
67050;DHT22;53955;52.442;13.284;2022-09-02T03:14:05;17.80;50.30
67050;DHT22;53955;52.442;13.284;2022-09-02T03:16:33;17.90;50.40
67050;DHT22;53955;52.442;13.284;2022-09-02T03:19:00;17.90;50.50
67050;DHT22;53955;52.442;13.284;2022-09-02T03:21:27;17.90;50.40
67050;DHT22;53955;52.442;13.284;2022-09-02T03:23:55;17.90;50.30
67050;DHT22;53955;52.442;13.284;2022-09-02T03:26:23;17.80;50.40
67050;DHT22;53955;52.442;13.284;2022-09-02T03:28:52;17.90;51.10
67050;DHT22;53955;52.442;13.284;2022-09-02T03:31:22;17.90;51.40
67050;DHT22;53955;52.442;13.284;2022-09-02T03:33:50;17.70;50.40
67050;DHT22;53955;52.442;13.284;2022-09-02T03:36:21;17.70;51.10
67050;DHT22;53955;52.442;13.284;2022-09-02T03:38:48;17.70;51.30
67050;DHT22;53955;52.442;13.284;2022-09-02T03:41:16;17.60;51.20
67050;DHT22;53955;52.442;13.284;2022-09-02T03:43:43;17.70;51.30
67050;DHT22;53955;52.442;13.284;2022-09-02T03:46:09;17.80;50.90
67050;DHT22;53955;52.442;13.284;2022-09-02T03:48:37;17.70;50.80
67050;DHT22;53955;52.442;13.284;2022-09-02T03:51:05;17.70;51.80
67050;DHT22;53955;52.442;13.284;2022-09-02T03:53:32;17.70;50.60
67050;DHT22;53955;52.442;13.284;2022-09-02T03:56:04;17.70;51.70
67050;DHT22;53955;52.442;13.284;2022-09-02T03:58:32;17.60;51.00
67050;DHT22;53955;52.442;13.284;2022-09-02T04:00:59;17.60;51.70
67050;DHT22;53955;52.442;13.284;2022-09-02T04:03:26;17.50;51.50
67050;DHT22;53955;52.442;13.284;2022-09-02T04:05:53;17.50;51.70
67050;DHT22;53955;52.442;13.284;2022-09-02T04:08:20;17.40;51.90
67050;DHT22;53955;52.442;13.284;2022-09-02T04:10:47;17.50;52.00
67050;DHT22;53955;52.442;13.284;2022-09-02T04:13:14;17.40;52.20
67050;DHT22;53955;52.442;13.284;2022-09-02T04:15:43;17.30;52.80
67050;DHT22;53955;52.442;13.284;2022-09-02T04:18:12;17.30;52.20
67050;DHT22;53955;52.442;13.284;2022-09-02T04:20:40;17.40;52.50
67050;DHT22;53955;52.442;13.284;2022-09-02T04:23:08;17.40;52.40
67050;DHT22;53955;52.442;13.284;2022-09-02T04:25:38;17.50;52.00
67050;DHT22;53955;52.442;13.284;2022-09-02T04:28:04;17.30;52.10
67050;DHT22;53955;52.442;13.284;2022-09-02T04:30:31;17.40;52.70
67050;DHT22;53955;52.442;13.284;2022-09-02T04:32:59;17.30;52.00
67050;DHT22;53955;52.442;13.284;2022-09-02T04:35:25;17.30;52.90
67050;DHT22;53955;52.442;13.284;2022-09-02T04:37:52;17.30;52.70
67050;DHT22;53955;52.442;13.284;2022-09-02T04:40:18;17.30;52.60
67050;DHT22;53955;52.442;13.284;2022-09-02T04:42:45;17.30;52.70
67050;DHT22;53955;52.442;13.284;2022-09-02T04:45:11;17.20;52.50
67050;DHT22;53955;52.442;13.284;2022-09-02T04:47:38;17.30;53.20
67050;DHT22;53955;52.442;13.284;2022-09-02T04:50:07;17.40;52.60
67050;DHT22;53955;52.442;13.284;2022-09-02T04:52:33;17.50;52.60
67050;DHT22;53955;52.442;13.284;2022-09-02T04:55:00;17.50;52.80
67050;DHT22;53955;52.442;13.284;2022-09-02T04:57:27;17.70;52.00
67050;DHT22;53955;52.442;13.284;2022-09-02T04:59:53;17.50;52.30
67050;DHT22;53955;52.442;13.284;2022-09-02T05:02:20;17.50;52.40
67050;DHT22;53955;52.442;13.284;2022-09-02T05:04:47;17.70;52.10
67050;DHT22;53955;52.442;13.284;2022-09-02T05:07:15;17.50;52.70
67050;DHT22;53955;52.442;13.284;2022-09-02T05:09:41;17.70;53.10
67050;DHT22;53955;52.442;13.284;2022-09-02T05:12:08;17.70;51.90
67050;DHT22;53955;52.442;13.284;2022-09-02T05:14:35;17.70;52.40
67050;DHT22;53955;52.442;13.284;2022-09-02T05:17:02;18.00;52.60
67050;DHT22;53955;52.442;13.284;2022-09-02T05:19:29;18.00;51.30
67050;DHT22;53955;52.442;13.284;2022-09-02T05:21:56;18.10;51.30
67050;DHT22;53955;52.442;13.284;2022-09-02T05:24:25;18.00;51.70
67050;DHT22;53955;52.442;13.284;2022-09-02T05:26:52;18.20;50.20
67050;DHT22;53955;52.442;13.284;2022-09-02T05:29:19;18.30;50.00
67050;DHT22;53955;52.442;13.284;2022-09-02T05:31:46;18.10;51.30
67050;DHT22;53955;52.442;13.284;2022-09-02T05:34:13;18.10;51.10
67050;DHT22;53955;52.442;13.284;2022-09-02T05:36:40;18.20;49.80
67050;DHT22;53955;52.442;13.284;2022-09-02T05:39:07;18.10;51.00
67050;DHT22;53955;52.442;13.284;2022-09-02T05:41:35;18.30;50.40
67050;DHT22;53955;52.442;13.284;2022-09-02T05:44:03;18.30;50.00
67050;DHT22;53955;52.442;13.284;2022-09-02T05:46:30;18.20;49.30
67050;DHT22;53955;52.442;13.284;2022-09-02T05:48:57;18.10;50.30
67050;DHT22;53955;52.442;13.284;2022-09-02T05:51:37;18.00;51.10
67050;DHT22;53955;52.442;13.284;2022-09-02T05:54:05;18.10;51.70
67050;DHT22;53955;52.442;13.284;2022-09-02T05:56:32;18.10;50.70
67050;DHT22;53955;52.442;13.284;2022-09-02T05:58:59;17.80;50.90
67050;DHT22;53955;52.442;13.284;2022-09-02T06:01:26;17.70;52.20
67050;DHT22;53955;52.442;13.284;2022-09-02T06:03:53;17.70;51.60
67050;DHT22;53955;52.442;13.284;2022-09-02T06:06:21;17.90;51.60
67050;DHT22;53955;52.442;13.284;2022-09-02T06:08:49;17.90;51.50
67050;DHT22;53955;52.442;13.284;2022-09-02T06:11:16;18.00;51.20
67050;DHT22;53955;52.442;13.284;2022-09-02T06:13:45;18.00;51.40
67050;DHT22;53955;52.442;13.284;2022-09-02T06:16:15;18.20;49.20
67050;DHT22;53955;52.442;13.284;2022-09-02T06:18:43;18.30;49.60
67050;DHT22;53955;52.442;13.284;2022-09-02T06:21:10;18.30;50.20
67050;DHT22;53955;52.442;13.284;2022-09-02T06:23:38;18.60;48.30
67050;DHT22;53955;52.442;13.284;2022-09-02T06:26:05;18.60;48.50
67050;DHT22;53955;52.442;13.284;2022-09-02T06:28:33;18.50;47.90
67050;DHT22;53955;52.442;13.284;2022-09-02T06:31:05;18.70;48.30
67050;DHT22;53955;52.442;13.284;2022-09-02T06:33:33;18.50;48.00
67050;DHT22;53955;52.442;13.284;2022-09-02T06:35:59;18.50;48.60
67050;DHT22;53955;52.442;13.284;2022-09-02T06:38:26;18.60;48.90
67050;DHT22;53955;52.442;13.284;2022-09-02T06:40:54;18.70;48.90
67050;DHT22;53955;52.442;13.284;2022-09-02T06:43:21;19.10;48.40
67050;DHT22;53955;52.442;13.284;2022-09-02T06:45:48;19.10;46.90
67050;DHT22;53955;52.442;13.284;2022-09-02T06:48:14;19.10;48.10
67050;DHT22;53955;52.442;13.284;2022-09-02T06:50:45;19.30;46.80
67050;DHT22;53955;52.442;13.284;2022-09-02T06:53:13;19.40;46.50
67050;DHT22;53955;52.442;13.284;2022-09-02T06:55:43;19.30;47.00
67050;DHT22;53955;52.442;13.284;2022-09-02T06:58:10;19.40;46.50
67050;DHT22;53955;52.442;13.284;2022-09-02T07:00:37;19.40;46.30
67050;DHT22;53955;52.442;13.284;2022-09-02T07:03:05;19.50;45.80
67050;DHT22;53955;52.442;13.284;2022-09-02T07:05:59;19.50;46.20
67050;DHT22;53955;52.442;13.284;2022-09-02T07:08:26;19.40;46.60
67050;DHT22;53955;52.442;13.284;2022-09-02T07:10:53;19.20;47.40
67050;DHT22;53955;52.442;13.284;2022-09-02T07:13:20;19.20;47.10
67050;DHT22;53955;52.442;13.284;2022-09-02T07:15:46;19.40;47.00
67050;DHT22;53955;52.442;13.284;2022-09-02T07:18:13;19.50;47.70
67050;DHT22;53955;52.442;13.284;2022-09-02T07:20:43;20.00;45.80
67050;DHT22;53955;52.442;13.284;2022-09-02T07:23:11;20.20;45.10
67050;DHT22;53955;52.442;13.284;2022-09-02T07:25:38;20.90;43.00
67050;DHT22;53955;52.442;13.284;2022-09-02T07:28:06;21.80;39.60
67050;DHT22;53955;52.442;13.284;2022-09-02T07:30:33;22.20;38.60
67050;DHT22;53955;52.442;13.284;2022-09-02T07:32:59;22.60;38.50
67050;DHT22;53955;52.442;13.284;2022-09-02T07:35:26;22.70;37.40
67050;DHT22;53955;52.442;13.284;2022-09-02T07:37:53;22.90;36.50
67050;DHT22;53955;52.442;13.284;2022-09-02T07:40:21;22.80;36.80
67050;DHT22;53955;52.442;13.284;2022-09-02T07:42:48;22.50;38.00
67050;DHT22;53955;52.442;13.284;2022-09-02T07:45:15;22.40;38.90
67050;DHT22;53955;52.442;13.284;2022-09-02T07:47:42;22.20;38.80
67050;DHT22;53955;52.442;13.284;2022-09-02T07:50:09;22.10;40.70
67050;DHT22;53955;52.442;13.284;2022-09-02T07:52:37;22.60;39.60
67050;DHT22;53955;52.442;13.284;2022-09-02T07:55:05;22.90;37.00
67050;DHT22;53955;52.442;13.284;2022-09-02T07:57:33;22.70;37.70
67050;DHT22;53955;52.442;13.284;2022-09-02T08:00:00;22.60;38.20
67050;DHT22;53955;52.442;13.284;2022-09-02T08:02:26;22.70;38.20
67050;DHT22;53955;52.442;13.284;2022-09-02T08:04:53;23.00;37.10
67050;DHT22;53955;52.442;13.284;2022-09-02T08:07:19;23.10;38.00
67050;DHT22;53955;52.442;13.284;2022-09-02T08:09:48;23.00;37.40
67050;DHT22;53955;52.442;13.284;2022-09-02T08:12:15;23.10;36.00
67050;DHT22;53955;52.442;13.284;2022-09-02T08:14:43;23.20;36.80
67050;DHT22;53955;52.442;13.284;2022-09-02T08:17:09;23.30;38.30
67050;DHT22;53955;52.442;13.284;2022-09-02T08:19:36;23.40;36.60
67050;DHT22;53955;52.442;13.284;2022-09-02T08:22:03;23.90;35.60
67050;DHT22;53955;52.442;13.284;2022-09-02T08:24:30;23.80;34.20
67050;DHT22;53955;52.442;13.284;2022-09-02T08:26:57;23.90;35.00
67050;DHT22;53955;52.442;13.284;2022-09-02T08:29:24;24.30;35.50
67050;DHT22;53955;52.442;13.284;2022-09-02T08:31:52;25.00;33.80
67050;DHT22;53955;52.442;13.284;2022-09-02T08:34:19;24.60;32.40
67050;DHT22;53955;52.442;13.284;2022-09-02T08:36:46;24.60;34.10
67050;DHT22;53955;52.442;13.284;2022-09-02T08:39:12;25.00;32.20
67050;DHT22;53955;52.442;13.284;2022-09-02T08:41:46;24.90;32.50
67050;DHT22;53955;52.442;13.284;2022-09-02T08:44:20;25.00;31.50
67050;DHT22;53955;52.442;13.284;2022-09-02T08:46:48;24.40;33.90
67050;DHT22;53955;52.442;13.284;2022-09-02T08:49:22;24.80;33.70
67050;DHT22;53955;52.442;13.284;2022-09-02T08:51:52;25.00;30.90
67050;DHT22;53955;52.442;13.284;2022-09-02T08:54:26;24.90;32.20
67050;DHT22;53955;52.442;13.284;2022-09-02T08:56:55;25.30;30.80
67050;DHT22;53955;52.442;13.284;2022-09-02T08:59:25;25.00;30.30
67050;DHT22;53955;52.442;13.284;2022-09-02T09:01:55;25.10;30.40
67050;DHT22;53955;52.442;13.284;2022-09-02T09:04:34;25.20;29.50
67050;DHT22;53955;52.442;13.284;2022-09-02T09:07:12;25.00;30.90
67050;DHT22;53955;52.442;13.284;2022-09-02T09:09:51;24.60;29.20
67050;DHT22;53955;52.442;13.284;2022-09-02T09:12:28;23.70;33.00
67050;DHT22;53955;52.442;13.284;2022-09-02T09:15:02;24.10;33.20
67050;DHT22;53955;52.442;13.284;2022-09-02T09:17:36;24.50;30.70
67050;DHT22;53955;52.442;13.284;2022-09-02T09:20:15;23.90;31.10
67050;DHT22;53955;52.442;13.284;2022-09-02T09:22:42;23.90;31.60
67050;DHT22;53955;52.442;13.284;2022-09-02T09:25:11;24.40;32.70
67050;DHT22;53955;52.442;13.284;2022-09-02T09:27:38;24.60;29.90
67050;DHT22;53955;52.442;13.284;2022-09-02T09:30:06;24.50;30.20
67050;DHT22;53955;52.442;13.284;2022-09-02T09:32:36;24.10;29.70
67050;DHT22;53955;52.442;13.284;2022-09-02T09:35:06;23.90;30.70
67050;DHT22;53955;52.442;13.284;2022-09-02T09:37:36;23.90;32.00
67050;DHT22;53955;52.442;13.284;2022-09-02T09:40:28;23.90;32.70
67050;DHT22;53955;52.442;13.284;2022-09-02T09:42:58;23.70;33.20
67050;DHT22;53955;52.442;13.284;2022-09-02T09:45:29;23.60;33.00
67050;DHT22;53955;52.442;13.284;2022-09-02T09:48:16;23.10;31.90
67050;DHT22;53955;52.442;13.284;2022-09-02T09:50:45;22.80;31.30
67050;DHT22;53955;52.442;13.284;2022-09-02T09:53:19;22.70;33.00
67050;DHT22;53955;52.442;13.284;2022-09-02T09:55:51;22.70;33.40
67050;DHT22;53955;52.442;13.284;2022-09-02T09:58:19;22.50;31.30
67050;DHT22;53955;52.442;13.284;2022-09-02T10:00:46;22.70;33.10
67050;DHT22;53955;52.442;13.284;2022-09-02T10:03:21;23.00;30.20
67050;DHT22;53955;52.442;13.284;2022-09-02T10:05:52;23.30;29.60
67050;DHT22;53955;52.442;13.284;2022-09-02T10:08:22;23.10;30.90
67050;DHT22;53955;52.442;13.284;2022-09-02T10:10:58;23.10;30.20
67050;DHT22;53955;52.442;13.284;2022-09-02T10:13:27;23.10;31.40
67050;DHT22;53955;52.442;13.284;2022-09-02T10:19:11;23.90;30.80
67050;DHT22;53955;52.442;13.284;2022-09-02T10:21:55;24.10;29.70
67050;DHT22;53955;52.442;13.284;2022-09-02T10:24:41;24.00;28.90
67050;DHT22;53955;52.442;13.284;2022-09-02T10:27:15;24.00;28.20
67050;DHT22;53955;52.442;13.284;2022-09-02T10:29:50;24.10;28.90
67050;DHT22;53955;52.442;13.284;2022-09-02T10:32:30;24.00;28.90
67050;DHT22;53955;52.442;13.284;2022-09-02T10:35:08;24.10;29.70
67050;DHT22;53955;52.442;13.284;2022-09-02T10:37:50;23.90;28.70
67050;DHT22;53955;52.442;13.284;2022-09-02T10:40:26;24.10;29.30
67050;DHT22;53955;52.442;13.284;2022-09-02T10:43:04;24.30;29.00
67050;DHT22;53955;52.442;13.284;2022-09-02T10:45:35;24.60;28.10
67050;DHT22;53955;52.442;13.284;2022-09-02T10:48:10;24.50;24.50
67050;DHT22;53955;52.442;13.284;2022-09-02T10:50:42;24.30;26.40
67050;DHT22;53955;52.442;13.284;2022-09-02T10:53:38;24.10;24.50
67050;DHT22;53955;52.442;13.284;2022-09-02T10:56:10;23.60;25.40
67050;DHT22;53955;52.442;13.284;2022-09-02T10:58:44;23.30;27.50
67050;DHT22;53955;52.442;13.284;2022-09-02T11:01:17;23.10;28.00
67050;DHT22;53955;52.442;13.284;2022-09-02T11:03:55;23.00;28.20
67050;DHT22;53955;52.442;13.284;2022-09-02T11:06:25;22.90;29.20
67050;DHT22;53955;52.442;13.284;2022-09-02T11:08:56;22.90;30.30
67050;DHT22;53955;52.442;13.284;2022-09-02T11:11:30;22.90;29.90
67050;DHT22;53955;52.442;13.284;2022-09-02T11:14:01;22.80;29.10
67050;DHT22;53955;52.442;13.284;2022-09-02T11:16:38;22.90;27.20
67050;DHT22;53955;52.442;13.284;2022-09-02T11:19:10;22.70;28.10
67050;DHT22;53955;52.442;13.284;2022-09-02T11:21:49;22.80;29.10
67050;DHT22;53955;52.442;13.284;2022-09-02T11:24:21;22.70;27.30
67050;DHT22;53955;52.442;13.284;2022-09-02T11:26:54;22.70;28.20
67050;DHT22;53955;52.442;13.284;2022-09-02T11:29:31;22.80;27.90
67050;DHT22;53955;52.442;13.284;2022-09-02T11:32:06;23.00;29.10
67050;DHT22;53955;52.442;13.284;2022-09-02T11:34:39;23.10;28.40
67050;DHT22;53955;52.442;13.284;2022-09-02T11:37:08;23.10;27.80
67050;DHT22;53955;52.442;13.284;2022-09-02T11:39:39;23.20;26.90
67050;DHT22;53955;52.442;13.284;2022-09-02T11:42:14;23.40;26.90
67050;DHT22;53955;52.442;13.284;2022-09-02T11:54:01;23.60;28.10
67050;DHT22;53955;52.442;13.284;2022-09-02T11:56:35;23.50;25.70
67050;DHT22;53955;52.442;13.284;2022-09-02T11:59:06;23.30;25.20
67050;DHT22;53955;52.442;13.284;2022-09-02T12:01:34;23.50;26.30
67050;DHT22;53955;52.442;13.284;2022-09-02T12:04:05;23.60;26.80
67050;DHT22;53955;52.442;13.284;2022-09-02T12:06:32;23.60;26.70
67050;DHT22;53955;52.442;13.284;2022-09-02T12:09:05;23.70;26.90
67050;DHT22;53955;52.442;13.284;2022-09-02T12:11:47;23.70;27.60
67050;DHT22;53955;52.442;13.284;2022-09-02T12:17:43;24.10;27.10
67050;DHT22;53955;52.442;13.284;2022-09-02T12:26:18;24.20;26.90
67050;DHT22;53955;52.442;13.284;2022-09-02T12:28:46;23.90;24.80
67050;DHT22;53955;52.442;13.284;2022-09-02T12:31:36;23.70;26.50
67050;DHT22;53955;52.442;13.284;2022-09-02T12:37:03;23.40;26.30
67050;DHT22;53955;52.442;13.284;2022-09-02T12:39:51;23.30;25.70
67050;DHT22;53955;52.442;13.284;2022-09-02T12:42:27;23.50;26.80
67050;DHT22;53955;52.442;13.284;2022-09-02T12:45:05;23.60;27.30
67050;DHT22;53955;52.442;13.284;2022-09-02T12:47:45;23.40;23.60
67050;DHT22;53955;52.442;13.284;2022-09-02T12:50:22;23.30;25.50
67050;DHT22;53955;52.442;13.284;2022-09-02T12:53:06;23.30;25.20
67050;DHT22;53955;52.442;13.284;2022-09-02T12:55:33;23.50;26.60
67050;DHT22;53955;52.442;13.284;2022-09-02T12:58:08;23.50;25.70
67050;DHT22;53955;52.442;13.284;2022-09-02T13:00:43;23.40;24.40
67050;DHT22;53955;52.442;13.284;2022-09-02T13:03:32;23.50;26.20
67050;DHT22;53955;52.442;13.284;2022-09-02T13:06:04;23.50;23.90
67050;DHT22;53955;52.442;13.284;2022-09-02T13:08:59;23.60;24.50
67050;DHT22;53955;52.442;13.284;2022-09-02T13:12:06;23.40;23.50
67050;DHT22;53955;52.442;13.284;2022-09-02T13:14:53;23.40;25.20
67050;DHT22;53955;52.442;13.284;2022-09-02T13:17:44;23.40;24.80
67050;DHT22;53955;52.442;13.284;2022-09-02T13:20:31;23.40;25.80
67050;DHT22;53955;52.442;13.284;2022-09-02T13:26:12;23.40;24.40
67050;DHT22;53955;52.442;13.284;2022-09-02T13:29:11;23.60;25.20
67050;DHT22;53955;52.442;13.284;2022-09-02T13:31:57;23.70;24.00
67050;DHT22;53955;52.442;13.284;2022-09-02T13:34:24;23.80;22.80
67050;DHT22;53955;52.442;13.284;2022-09-02T13:36:51;24.10;23.70
67050;DHT22;53955;52.442;13.284;2022-09-02T13:39:19;24.30;23.30
67050;DHT22;53955;52.442;13.284;2022-09-02T13:41:46;24.40;22.00
67050;DHT22;53955;52.442;13.284;2022-09-02T13:44:20;24.30;22.10
67050;DHT22;53955;52.442;13.284;2022-09-02T13:46:49;23.90;22.40
67050;DHT22;53955;52.442;13.284;2022-09-02T13:49:23;23.80;22.80
67050;DHT22;53955;52.442;13.284;2022-09-02T13:51:52;23.60;24.40
67050;DHT22;53955;52.442;13.284;2022-09-02T13:54:27;23.20;23.90
67050;DHT22;53955;52.442;13.284;2022-09-02T13:56:55;23.20;23.80
67050;DHT22;53955;52.442;13.284;2022-09-02T13:59:33;23.10;23.80
67050;DHT22;53955;52.442;13.284;2022-09-02T14:02:15;23.00;23.80
67050;DHT22;53955;52.442;13.284;2022-09-02T14:04:42;23.30;23.30
67050;DHT22;53955;52.442;13.284;2022-09-02T14:07:09;23.60;23.40
67050;DHT22;53955;52.442;13.284;2022-09-02T14:09:38;23.80;22.50
67050;DHT22;53955;52.442;13.284;2022-09-02T14:12:06;23.80;22.20
67050;DHT22;53955;52.442;13.284;2022-09-02T14:14:33;23.90;21.30
67050;DHT22;53955;52.442;13.284;2022-09-02T14:17:19;24.00;22.00
67050;DHT22;53955;52.442;13.284;2022-09-02T14:19:46;24.00;20.70
67050;DHT22;53955;52.442;13.284;2022-09-02T14:22:25;24.00;21.40
67050;DHT22;53955;52.442;13.284;2022-09-02T14:24:52;24.00;20.60
67050;DHT22;53955;52.442;13.284;2022-09-02T14:27:21;23.90;20.90
67050;DHT22;53955;52.442;13.284;2022-09-02T14:29:55;23.90;20.60
67050;DHT22;53955;52.442;13.284;2022-09-02T14:32:25;24.20;21.10
67050;DHT22;53955;52.442;13.284;2022-09-02T14:35:11;24.60;21.80
67050;DHT22;53955;52.442;13.284;2022-09-02T14:37:49;24.30;19.20
67050;DHT22;53955;52.442;13.284;2022-09-02T14:40:17;24.10;19.50
67050;DHT22;53955;52.442;13.284;2022-09-02T14:42:45;23.90;19.40
67050;DHT22;53955;52.442;13.284;2022-09-02T14:45:12;23.70;19.70
67050;DHT22;53955;52.442;13.284;2022-09-02T14:47:43;23.70;21.60
67050;DHT22;53955;52.442;13.284;2022-09-02T14:50:11;23.70;20.40
67050;DHT22;53955;52.442;13.284;2022-09-02T14:52:46;23.60;21.10
67050;DHT22;53955;52.442;13.284;2022-09-02T14:55:40;23.70;22.10
67050;DHT22;53955;52.442;13.284;2022-09-02T14:58:07;23.60;21.40
67050;DHT22;53955;52.442;13.284;2022-09-02T15:00:34;23.70;22.80
67050;DHT22;53955;52.442;13.284;2022-09-02T15:03:05;23.50;21.70
67050;DHT22;53955;52.442;13.284;2022-09-02T15:05:32;23.40;23.50
67050;DHT22;53955;52.442;13.284;2022-09-02T15:07:59;22.90;22.50
67050;DHT22;53955;52.442;13.284;2022-09-02T15:10:25;23.00;22.00
67050;DHT22;53955;52.442;13.284;2022-09-02T15:12:54;23.00;22.50
67050;DHT22;53955;52.442;13.284;2022-09-02T15:15:24;23.10;22.90
67050;DHT22;53955;52.442;13.284;2022-09-02T15:17:52;23.20;22.40
67050;DHT22;53955;52.442;13.284;2022-09-02T15:20:20;23.10;21.80
67050;DHT22;53955;52.442;13.284;2022-09-02T15:22:47;23.20;23.30
67050;DHT22;53955;52.442;13.284;2022-09-02T15:25:17;23.30;24.20
67050;DHT22;53955;52.442;13.284;2022-09-02T15:27:43;23.60;23.90
67050;DHT22;53955;52.442;13.284;2022-09-02T15:30:10;23.60;19.70
67050;DHT22;53955;52.442;13.284;2022-09-02T15:32:38;23.70;20.20
67050;DHT22;53955;52.442;13.284;2022-09-02T15:35:06;23.70;19.60
67050;DHT22;53955;52.442;13.284;2022-09-02T15:37:35;23.60;20.40
67050;DHT22;53955;52.442;13.284;2022-09-02T15:40:03;23.60;21.30
67050;DHT22;53955;52.442;13.284;2022-09-02T15:42:32;23.50;21.00
67050;DHT22;53955;52.442;13.284;2022-09-02T15:44:59;23.40;20.50
67050;DHT22;53955;52.442;13.284;2022-09-02T15:47:26;23.40;20.90
67050;DHT22;53955;52.442;13.284;2022-09-02T15:49:55;23.30;21.40
67050;DHT22;53955;52.442;13.284;2022-09-02T15:52:23;23.30;21.60
67050;DHT22;53955;52.442;13.284;2022-09-02T15:54:52;23.10;21.70
67050;DHT22;53955;52.442;13.284;2022-09-02T15:57:19;23.10;21.40
67050;DHT22;53955;52.442;13.284;2022-09-02T15:59:46;22.90;22.70
67050;DHT22;53955;52.442;13.284;2022-09-02T16:02:12;22.90;22.30